Aviation Digital Data Service (ADDS)

Output produced by TAFs form (0049 UTC 25 July 2017)
found at http://aviationweather.gov/adds/tafs/
 
KLND 242320Z 2500/2524 27012G18KT P6SM VCSH BKN110 
     FM250200 25009KT P6SM SCT110 SCT150 
     FM251000 VRB05KT P6SM BKN110 
     FM251900 VRB12G20KT P6SM VCTS SCT060CB BKN090